sensor_id;sensor_type;location;lat;lon;timestamp;P1;durP1;ratioP1;P2;durP2;ratioP2
15536;SDS011;7870;52.448;13.270;2023-06-14T00:00:14;6.57;;;2.55;;
15536;SDS011;7870;52.448;13.270;2023-06-14T00:02:43;5.97;;;2.80;;
15536;SDS011;7870;52.448;13.270;2023-06-14T00:05:12;7.30;;;2.47;;
15536;SDS011;7870;52.448;13.270;2023-06-14T00:07:40;3.90;;;2.33;;
15536;SDS011;7870;52.448;13.270;2023-06-14T00:10:09;4.32;;;2.42;;
15536;SDS011;7870;52.448;13.270;2023-06-14T00:12:39;9.60;;;2.55;;
15536;SDS011;7870;52.448;13.270;2023-06-14T00:15:16;3.83;;;2.00;;
15536;SDS011;7870;52.448;13.270;2023-06-14T00:17:42;3.42;;;2.10;;
15536;SDS011;7870;52.448;13.270;2023-06-14T00:20:13;5.07;;;2.13;;
15536;SDS011;7870;52.448;13.270;2023-06-14T00:22:40;4.45;;;2.42;;
15536;SDS011;7870;52.448;13.270;2023-06-14T00:25:07;4.90;;;2.40;;
15536;SDS011;7870;52.448;13.270;2023-06-14T00:27:54;3.65;;;2.20;;
15536;SDS011;7870;52.448;13.270;2023-06-14T00:30:21;3.13;;;1.95;;
15536;SDS011;7870;52.448;13.270;2023-06-14T00:32:48;5.60;;;3.15;;
15536;SDS011;7870;52.448;13.270;2023-06-14T00:35:16;4.05;;;2.08;;
15536;SDS011;7870;52.448;13.270;2023-06-14T00:37:43;3.55;;;2.30;;
15536;SDS011;7870;52.448;13.270;2023-06-14T00:40:09;4.80;;;2.63;;
15536;SDS011;7870;52.448;13.270;2023-06-14T00:42:36;3.45;;;2.47;;
15536;SDS011;7870;52.448;13.270;2023-06-14T00:45:03;4.57;;;2.78;;
15536;SDS011;7870;52.448;13.270;2023-06-14T00:47:30;3.92;;;2.42;;
15536;SDS011;7870;52.448;13.270;2023-06-14T00:49:56;5.00;;;2.20;;
15536;SDS011;7870;52.448;13.270;2023-06-14T00:52:24;4.18;;;2.30;;
15536;SDS011;7870;52.448;13.270;2023-06-14T00:54:51;4.00;;;2.42;;
15536;SDS011;7870;52.448;13.270;2023-06-14T00:57:18;6.20;;;2.40;;
15536;SDS011;7870;52.448;13.270;2023-06-14T00:59:47;4.93;;;2.72;;
15536;SDS011;7870;52.448;13.270;2023-06-14T01:02:14;4.30;;;2.55;;
15536;SDS011;7870;52.448;13.270;2023-06-14T01:04:42;3.97;;;2.40;;
15536;SDS011;7870;52.448;13.270;2023-06-14T01:10:06;5.20;;;2.78;;
15536;SDS011;7870;52.448;13.270;2023-06-14T01:15:29;3.95;;;2.35;;
15536;SDS011;7870;52.448;13.270;2023-06-14T01:17:57;4.28;;;2.63;;
15536;SDS011;7870;52.448;13.270;2023-06-14T01:20:29;5.30;;;2.33;;
15536;SDS011;7870;52.448;13.270;2023-06-14T01:22:59;3.65;;;2.60;;
15536;SDS011;7870;52.448;13.270;2023-06-14T01:25:26;5.78;;;2.78;;
15536;SDS011;7870;52.448;13.270;2023-06-14T01:27:53;5.57;;;2.47;;
15536;SDS011;7870;52.448;13.270;2023-06-14T01:30:24;4.47;;;2.53;;
15536;SDS011;7870;52.448;13.270;2023-06-14T01:32:52;5.05;;;2.70;;
15536;SDS011;7870;52.448;13.270;2023-06-14T01:35:21;5.20;;;2.40;;
15536;SDS011;7870;52.448;13.270;2023-06-14T01:37:48;4.47;;;2.65;;
15536;SDS011;7870;52.448;13.270;2023-06-14T01:40:15;3.47;;;2.40;;
15536;SDS011;7870;52.448;13.270;2023-06-14T01:42:43;6.88;;;2.70;;
15536;SDS011;7870;52.448;13.270;2023-06-14T01:45:10;5.55;;;2.90;;
15536;SDS011;7870;52.448;13.270;2023-06-14T01:47:37;5.25;;;2.90;;
15536;SDS011;7870;52.448;13.270;2023-06-14T01:50:05;4.82;;;2.60;;
15536;SDS011;7870;52.448;13.270;2023-06-14T01:52:32;7.70;;;3.20;;
15536;SDS011;7870;52.448;13.270;2023-06-14T01:54:58;7.70;;;2.80;;
15536;SDS011;7870;52.448;13.270;2023-06-14T01:57:28;5.68;;;2.67;;
15536;SDS011;7870;52.448;13.270;2023-06-14T01:59:55;5.45;;;2.58;;
15536;SDS011;7870;52.448;13.270;2023-06-14T02:02:24;5.82;;;2.80;;
15536;SDS011;7870;52.448;13.270;2023-06-14T02:04:52;4.60;;;2.92;;
15536;SDS011;7870;52.448;13.270;2023-06-14T02:07:18;5.93;;;3.13;;
15536;SDS011;7870;52.448;13.270;2023-06-14T02:09:45;6.25;;;2.90;;
15536;SDS011;7870;52.448;13.270;2023-06-14T02:12:11;4.70;;;2.97;;
15536;SDS011;7870;52.448;13.270;2023-06-14T02:14:38;6.32;;;2.90;;
15536;SDS011;7870;52.448;13.270;2023-06-14T02:17:05;4.57;;;2.95;;
15536;SDS011;7870;52.448;13.270;2023-06-14T02:19:33;5.85;;;2.90;;
15536;SDS011;7870;52.448;13.270;2023-06-14T02:21:59;8.10;;;2.45;;
15536;SDS011;7870;52.448;13.270;2023-06-14T02:24:26;7.43;;;2.95;;
15536;SDS011;7870;52.448;13.270;2023-06-14T02:26:53;5.55;;;3.10;;
15536;SDS011;7870;52.448;13.270;2023-06-14T02:29:20;5.45;;;2.85;;
15536;SDS011;7870;52.448;13.270;2023-06-14T02:31:47;7.05;;;3.17;;
15536;SDS011;7870;52.448;13.270;2023-06-14T02:34:15;6.40;;;2.90;;
15536;SDS011;7870;52.448;13.270;2023-06-14T02:36:45;3.90;;;2.80;;
15536;SDS011;7870;52.448;13.270;2023-06-14T02:39:14;4.45;;;3.45;;
15536;SDS011;7870;52.448;13.270;2023-06-14T02:41:42;7.20;;;3.10;;
15536;SDS011;7870;52.448;13.270;2023-06-14T02:44:09;5.25;;;2.90;;
15536;SDS011;7870;52.448;13.270;2023-06-14T02:46:40;5.68;;;3.22;;
15536;SDS011;7870;52.448;13.270;2023-06-14T02:49:07;5.28;;;3.05;;
15536;SDS011;7870;52.448;13.270;2023-06-14T02:51:34;5.28;;;3.35;;
15536;SDS011;7870;52.448;13.270;2023-06-14T02:54:00;4.60;;;3.20;;
15536;SDS011;7870;52.448;13.270;2023-06-14T02:56:27;6.05;;;3.35;;
15536;SDS011;7870;52.448;13.270;2023-06-14T02:58:55;5.20;;;3.47;;
15536;SDS011;7870;52.448;13.270;2023-06-14T03:01:21;6.72;;;3.25;;
15536;SDS011;7870;52.448;13.270;2023-06-14T03:03:49;4.70;;;3.42;;
15536;SDS011;7870;52.448;13.270;2023-06-14T03:06:16;7.15;;;4.28;;
15536;SDS011;7870;52.448;13.270;2023-06-14T03:08:45;6.50;;;3.67;;
15536;SDS011;7870;52.448;13.270;2023-06-14T03:11:14;4.70;;;3.15;;
15536;SDS011;7870;52.448;13.270;2023-06-14T03:13:41;5.13;;;3.65;;
15536;SDS011;7870;52.448;13.270;2023-06-14T03:16:08;5.80;;;3.88;;
15536;SDS011;7870;52.448;13.270;2023-06-14T03:18:37;4.82;;;3.50;;
15536;SDS011;7870;52.448;13.270;2023-06-14T03:21:05;6.05;;;3.80;;
15536;SDS011;7870;52.448;13.270;2023-06-14T03:23:33;6.53;;;3.47;;
15536;SDS011;7870;52.448;13.270;2023-06-14T03:26:02;6.35;;;4.18;;
15536;SDS011;7870;52.448;13.270;2023-06-14T03:28:29;6.72;;;4.35;;
15536;SDS011;7870;52.448;13.270;2023-06-14T03:30:56;7.50;;;3.85;;
15536;SDS011;7870;52.448;13.270;2023-06-14T03:33:24;5.78;;;3.83;;
15536;SDS011;7870;52.448;13.270;2023-06-14T03:35:52;6.53;;;3.83;;
15536;SDS011;7870;52.448;13.270;2023-06-14T03:38:18;4.22;;;3.30;;
15536;SDS011;7870;52.448;13.270;2023-06-14T03:40:45;5.13;;;3.60;;
15536;SDS011;7870;52.448;13.270;2023-06-14T03:43:12;5.88;;;3.60;;
15536;SDS011;7870;52.448;13.270;2023-06-14T03:45:39;5.53;;;3.97;;
15536;SDS011;7870;52.448;13.270;2023-06-14T03:48:08;5.97;;;4.20;;
15536;SDS011;7870;52.448;13.270;2023-06-14T03:50:36;5.53;;;3.80;;
15536;SDS011;7870;52.448;13.270;2023-06-14T03:53:06;4.45;;;4.03;;
15536;SDS011;7870;52.448;13.270;2023-06-14T03:55:33;4.78;;;3.38;;
15536;SDS011;7870;52.448;13.270;2023-06-14T03:58:03;6.03;;;3.50;;
15536;SDS011;7870;52.448;13.270;2023-06-14T04:00:31;6.13;;;3.97;;
15536;SDS011;7870;52.448;13.270;2023-06-14T04:02:58;5.90;;;4.07;;
15536;SDS011;7870;52.448;13.270;2023-06-14T04:05:25;5.85;;;3.75;;
15536;SDS011;7870;52.448;13.270;2023-06-14T04:07:54;7.80;;;3.92;;
15536;SDS011;7870;52.448;13.270;2023-06-14T04:10:22;6.28;;;3.47;;
15536;SDS011;7870;52.448;13.270;2023-06-14T04:12:49;6.43;;;3.90;;
15536;SDS011;7870;52.448;13.270;2023-06-14T04:15:17;7.30;;;4.18;;
15536;SDS011;7870;52.448;13.270;2023-06-14T04:17:49;7.38;;;4.30;;
15536;SDS011;7870;52.448;13.270;2023-06-14T04:20:16;6.65;;;3.78;;
15536;SDS011;7870;52.448;13.270;2023-06-14T04:22:43;5.85;;;4.05;;
15536;SDS011;7870;52.448;13.270;2023-06-14T04:25:10;5.55;;;4.43;;
15536;SDS011;7870;52.448;13.270;2023-06-14T04:27:40;7.13;;;4.50;;
15536;SDS011;7870;52.448;13.270;2023-06-14T04:30:08;10.98;;;4.75;;
15536;SDS011;7870;52.448;13.270;2023-06-14T04:32:40;10.32;;;5.75;;
15536;SDS011;7870;52.448;13.270;2023-06-14T04:35:09;7.13;;;4.53;;
15536;SDS011;7870;52.448;13.270;2023-06-14T04:37:39;8.57;;;4.78;;
15536;SDS011;7870;52.448;13.270;2023-06-14T04:40:08;7.88;;;5.05;;
15536;SDS011;7870;52.448;13.270;2023-06-14T04:42:38;6.45;;;4.75;;
15536;SDS011;7870;52.448;13.270;2023-06-14T04:45:08;5.15;;;4.43;;
15536;SDS011;7870;52.448;13.270;2023-06-14T04:47:37;8.60;;;5.15;;
15536;SDS011;7870;52.448;13.270;2023-06-14T04:50:05;6.70;;;4.55;;
15536;SDS011;7870;52.448;13.270;2023-06-14T04:52:32;6.60;;;3.92;;
15536;SDS011;7870;52.448;13.270;2023-06-14T04:54:59;9.13;;;4.50;;
15536;SDS011;7870;52.448;13.270;2023-06-14T04:57:26;9.32;;;4.80;;
15536;SDS011;7870;52.448;13.270;2023-06-14T04:59:57;6.47;;;4.93;;
15536;SDS011;7870;52.448;13.270;2023-06-14T05:02:24;6.22;;;4.53;;
15536;SDS011;7870;52.448;13.270;2023-06-14T05:04:53;11.02;;;5.35;;
15536;SDS011;7870;52.448;13.270;2023-06-14T05:07:20;6.43;;;4.93;;
15536;SDS011;7870;52.448;13.270;2023-06-14T05:09:51;8.13;;;4.38;;
15536;SDS011;7870;52.448;13.270;2023-06-14T05:12:17;6.68;;;4.72;;
15536;SDS011;7870;52.448;13.270;2023-06-14T05:14:45;6.22;;;4.95;;
15536;SDS011;7870;52.448;13.270;2023-06-14T05:17:14;11.05;;;4.97;;
15536;SDS011;7870;52.448;13.270;2023-06-14T05:19:43;9.55;;;5.38;;
15536;SDS011;7870;52.448;13.270;2023-06-14T05:22:09;6.57;;;5.30;;
15536;SDS011;7870;52.448;13.270;2023-06-14T05:24:36;7.85;;;5.50;;
15536;SDS011;7870;52.448;13.270;2023-06-14T05:27:03;9.00;;;5.07;;
15536;SDS011;7870;52.448;13.270;2023-06-14T05:29:29;7.50;;;5.38;;
15536;SDS011;7870;52.448;13.270;2023-06-14T05:31:56;6.97;;;5.57;;
15536;SDS011;7870;52.448;13.270;2023-06-14T05:34:23;10.25;;;5.82;;
15536;SDS011;7870;52.448;13.270;2023-06-14T05:36:49;7.63;;;5.57;;
15536;SDS011;7870;52.448;13.270;2023-06-14T05:39:16;8.68;;;5.80;;
15536;SDS011;7870;52.448;13.270;2023-06-14T05:41:43;9.02;;;5.85;;
15536;SDS011;7870;52.448;13.270;2023-06-14T05:44:09;6.93;;;5.50;;
15536;SDS011;7870;52.448;13.270;2023-06-14T05:46:36;9.93;;;4.88;;
15536;SDS011;7870;52.448;13.270;2023-06-14T05:49:03;7.32;;;5.63;;
15536;SDS011;7870;52.448;13.270;2023-06-14T05:51:29;10.70;;;6.13;;
15536;SDS011;7870;52.448;13.270;2023-06-14T05:53:56;8.02;;;5.47;;
15536;SDS011;7870;52.448;13.270;2023-06-14T05:56:23;8.02;;;6.40;;
15536;SDS011;7870;52.448;13.270;2023-06-14T05:58:50;9.23;;;6.80;;
15536;SDS011;7870;52.448;13.270;2023-06-14T06:01:17;6.68;;;5.80;;
15536;SDS011;7870;52.448;13.270;2023-06-14T06:03:44;9.55;;;6.28;;
15536;SDS011;7870;52.448;13.270;2023-06-14T06:06:14;8.23;;;6.15;;
15536;SDS011;7870;52.448;13.270;2023-06-14T06:08:41;9.20;;;5.97;;
15536;SDS011;7870;52.448;13.270;2023-06-14T06:11:07;7.38;;;5.55;;
15536;SDS011;7870;52.448;13.270;2023-06-14T06:13:35;7.70;;;6.03;;
15536;SDS011;7870;52.448;13.270;2023-06-14T06:16:02;8.07;;;5.60;;
15536;SDS011;7870;52.448;13.270;2023-06-14T06:18:29;7.53;;;5.75;;
15536;SDS011;7870;52.448;13.270;2023-06-14T06:20:56;6.85;;;5.30;;
15536;SDS011;7870;52.448;13.270;2023-06-14T06:23:22;10.45;;;5.88;;
15536;SDS011;7870;52.448;13.270;2023-06-14T06:25:49;6.88;;;5.60;;
15536;SDS011;7870;52.448;13.270;2023-06-14T06:28:16;8.30;;;5.95;;
15536;SDS011;7870;52.448;13.270;2023-06-14T06:30:42;8.65;;;5.53;;
15536;SDS011;7870;52.448;13.270;2023-06-14T06:33:09;8.07;;;5.72;;
15536;SDS011;7870;52.448;13.270;2023-06-14T06:35:36;8.70;;;5.93;;
15536;SDS011;7870;52.448;13.270;2023-06-14T06:38:03;10.57;;;5.95;;
15536;SDS011;7870;52.448;13.270;2023-06-14T06:40:30;10.35;;;6.10;;
15536;SDS011;7870;52.448;13.270;2023-06-14T06:42:56;7.13;;;5.28;;
15536;SDS011;7870;52.448;13.270;2023-06-14T06:45:26;8.98;;;6.43;;
15536;SDS011;7870;52.448;13.270;2023-06-14T06:47:52;10.77;;;6.22;;
15536;SDS011;7870;52.448;13.270;2023-06-14T06:50:19;7.50;;;6.28;;
15536;SDS011;7870;52.448;13.270;2023-06-14T06:52:51;12.23;;;6.00;;
15536;SDS011;7870;52.448;13.270;2023-06-14T06:55:19;16.13;;;9.35;;
15536;SDS011;7870;52.448;13.270;2023-06-14T06:57:45;22.38;;;14.20;;
15536;SDS011;7870;52.448;13.270;2023-06-14T07:00:12;15.38;;;11.90;;
15536;SDS011;7870;52.448;13.270;2023-06-14T07:02:40;17.73;;;11.52;;
15536;SDS011;7870;52.448;13.270;2023-06-14T07:05:07;27.63;;;19.45;;
15536;SDS011;7870;52.448;13.270;2023-06-14T07:07:34;26.95;;;20.65;;
15536;SDS011;7870;52.448;13.270;2023-06-14T07:10:00;31.17;;;22.33;;
15536;SDS011;7870;52.448;13.270;2023-06-14T07:12:31;37.17;;;24.10;;
15536;SDS011;7870;52.448;13.270;2023-06-14T07:14:59;27.00;;;19.75;;
15536;SDS011;7870;52.448;13.270;2023-06-14T07:17:28;26.77;;;20.52;;
15536;SDS011;7870;52.448;13.270;2023-06-14T07:19:55;24.33;;;18.20;;
15536;SDS011;7870;52.448;13.270;2023-06-14T07:22:21;32.95;;;20.77;;
15536;SDS011;7870;52.448;13.270;2023-06-14T07:24:48;35.53;;;22.65;;
15536;SDS011;7870;52.448;13.270;2023-06-14T07:27:15;29.85;;;22.02;;
15536;SDS011;7870;52.448;13.270;2023-06-14T07:29:41;36.15;;;22.60;;
15536;SDS011;7870;52.448;13.270;2023-06-14T07:32:08;23.08;;;16.77;;
15536;SDS011;7870;52.448;13.270;2023-06-14T07:34:35;26.38;;;17.70;;
15536;SDS011;7870;52.448;13.270;2023-06-14T07:37:01;35.85;;;21.85;;
15536;SDS011;7870;52.448;13.270;2023-06-14T07:39:28;36.20;;;23.00;;
15536;SDS011;7870;52.448;13.270;2023-06-14T07:41:56;33.03;;;22.30;;
15536;SDS011;7870;52.448;13.270;2023-06-14T07:44:22;33.03;;;21.33;;
15536;SDS011;7870;52.448;13.270;2023-06-14T07:46:49;29.73;;;21.48;;
15536;SDS011;7870;52.448;13.270;2023-06-14T07:49:15;28.33;;;18.90;;
15536;SDS011;7870;52.448;13.270;2023-06-14T07:51:42;23.55;;;13.88;;
15536;SDS011;7870;52.448;13.270;2023-06-14T07:54:10;15.15;;;11.45;;
15536;SDS011;7870;52.448;13.270;2023-06-14T07:56:37;15.35;;;9.82;;
15536;SDS011;7870;52.448;13.270;2023-06-14T07:59:03;13.15;;;8.55;;
15536;SDS011;7870;52.448;13.270;2023-06-14T08:01:32;13.13;;;9.65;;
15536;SDS011;7870;52.448;13.270;2023-06-14T08:03:59;11.40;;;9.32;;
15536;SDS011;7870;52.448;13.270;2023-06-14T08:06:26;13.02;;;9.50;;
15536;SDS011;7870;52.448;13.270;2023-06-14T08:08:53;11.98;;;8.60;;
15536;SDS011;7870;52.448;13.270;2023-06-14T08:11:19;11.23;;;6.68;;
15536;SDS011;7870;52.448;13.270;2023-06-14T08:13:47;9.15;;;7.30;;
15536;SDS011;7870;52.448;13.270;2023-06-14T08:16:13;8.45;;;5.65;;
15536;SDS011;7870;52.448;13.270;2023-06-14T08:18:40;7.70;;;4.22;;
15536;SDS011;7870;52.448;13.270;2023-06-14T08:21:06;7.00;;;4.15;;
15536;SDS011;7870;52.448;13.270;2023-06-14T08:23:33;6.25;;;4.63;;
15536;SDS011;7870;52.448;13.270;2023-06-14T08:26:00;6.93;;;4.40;;
15536;SDS011;7870;52.448;13.270;2023-06-14T08:28:27;10.02;;;5.55;;
15536;SDS011;7870;52.448;13.270;2023-06-14T08:30:54;9.93;;;5.28;;
15536;SDS011;7870;52.448;13.270;2023-06-14T08:33:21;14.20;;;5.72;;
15536;SDS011;7870;52.448;13.270;2023-06-14T08:35:48;7.60;;;3.92;;
15536;SDS011;7870;52.448;13.270;2023-06-14T08:38:15;10.57;;;3.95;;
15536;SDS011;7870;52.448;13.270;2023-06-14T08:40:42;7.30;;;3.90;;
15536;SDS011;7870;52.448;13.270;2023-06-14T08:43:08;7.35;;;4.40;;
15536;SDS011;7870;52.448;13.270;2023-06-14T08:45:35;10.40;;;4.13;;
15536;SDS011;7870;52.448;13.270;2023-06-14T08:48:03;8.48;;;4.10;;
15536;SDS011;7870;52.448;13.270;2023-06-14T08:50:32;5.82;;;4.15;;
15536;SDS011;7870;52.448;13.270;2023-06-14T08:53:00;6.85;;;4.20;;
15536;SDS011;7870;52.448;13.270;2023-06-14T08:55:30;8.10;;;4.10;;
15536;SDS011;7870;52.448;13.270;2023-06-14T08:58:02;8.75;;;4.07;;
15536;SDS011;7870;52.448;13.270;2023-06-14T09:00:30;8.43;;;3.97;;
15536;SDS011;7870;52.448;13.270;2023-06-14T09:02:59;6.93;;;3.95;;
15536;SDS011;7870;52.448;13.270;2023-06-14T09:05:26;7.72;;;3.50;;
15536;SDS011;7870;52.448;13.270;2023-06-14T09:07:53;6.68;;;3.90;;
15536;SDS011;7870;52.448;13.270;2023-06-14T09:10:31;7.55;;;3.42;;
15536;SDS011;7870;52.448;13.270;2023-06-14T09:13:00;6.07;;;3.40;;
15536;SDS011;7870;52.448;13.270;2023-06-14T09:15:28;10.00;;;3.95;;
15536;SDS011;7870;52.448;13.270;2023-06-14T09:17:56;6.40;;;3.40;;
15536;SDS011;7870;52.448;13.270;2023-06-14T09:20:24;6.28;;;3.92;;
15536;SDS011;7870;52.448;13.270;2023-06-14T09:22:51;7.28;;;3.50;;
15536;SDS011;7870;52.448;13.270;2023-06-14T09:25:19;9.88;;;3.50;;
15536;SDS011;7870;52.448;13.270;2023-06-14T09:28:06;5.32;;;3.28;;
15536;SDS011;7870;52.448;13.270;2023-06-14T09:30:33;7.05;;;3.65;;
15536;SDS011;7870;52.448;13.270;2023-06-14T09:32:59;4.65;;;3.25;;
15536;SDS011;7870;52.448;13.270;2023-06-14T09:35:27;7.45;;;3.97;;
15536;SDS011;7870;52.448;13.270;2023-06-14T09:37:57;8.55;;;3.90;;
15536;SDS011;7870;52.448;13.270;2023-06-14T09:40:24;6.70;;;3.67;;
15536;SDS011;7870;52.448;13.270;2023-06-14T09:42:50;8.18;;;3.80;;
15536;SDS011;7870;52.448;13.270;2023-06-14T09:45:18;8.57;;;3.70;;
15536;SDS011;7870;52.448;13.270;2023-06-14T09:47:51;8.70;;;4.07;;
15536;SDS011;7870;52.448;13.270;2023-06-14T09:50:31;11.52;;;3.50;;
15536;SDS011;7870;52.448;13.270;2023-06-14T09:53:00;8.27;;;3.15;;
15536;SDS011;7870;52.448;13.270;2023-06-14T09:55:30;7.80;;;3.88;;
15536;SDS011;7870;52.448;13.270;2023-06-14T09:57:57;8.10;;;3.33;;
15536;SDS011;7870;52.448;13.270;2023-06-14T10:00:24;9.02;;;3.17;;
15536;SDS011;7870;52.448;13.270;2023-06-14T10:02:53;10.00;;;3.70;;
15536;SDS011;7870;52.448;13.270;2023-06-14T10:05:21;7.00;;;3.55;;
15536;SDS011;7870;52.448;13.270;2023-06-14T10:10:20;8.10;;;3.65;;
15536;SDS011;7870;52.448;13.270;2023-06-14T10:12:47;6.72;;;3.33;;
15536;SDS011;7870;52.448;13.270;2023-06-14T10:15:19;8.45;;;4.13;;
15536;SDS011;7870;52.448;13.270;2023-06-14T10:17:54;7.20;;;3.63;;
15536;SDS011;7870;52.448;13.270;2023-06-14T10:20:28;6.60;;;3.40;;
15536;SDS011;7870;52.448;13.270;2023-06-14T10:23:04;5.97;;;3.08;;
15536;SDS011;7870;52.448;13.270;2023-06-14T10:25:34;7.65;;;3.55;;
15536;SDS011;7870;52.448;13.270;2023-06-14T10:28:17;6.57;;;3.50;;
15536;SDS011;7870;52.448;13.270;2023-06-14T10:33:39;8.23;;;3.47;;
15536;SDS011;7870;52.448;13.270;2023-06-14T10:41:29;8.82;;;3.25;;
15536;SDS011;7870;52.448;13.270;2023-06-14T10:46:48;9.30;;;3.63;;
15536;SDS011;7870;52.448;13.270;2023-06-14T10:49:18;4.25;;;2.90;;
15536;SDS011;7870;52.448;13.270;2023-06-14T10:51:49;6.90;;;3.10;;
15536;SDS011;7870;52.448;13.270;2023-06-14T10:56:46;9.68;;;3.13;;
15536;SDS011;7870;52.448;13.270;2023-06-14T10:59:14;5.93;;;3.20;;
15536;SDS011;7870;52.448;13.270;2023-06-14T11:01:58;6.28;;;3.28;;
15536;SDS011;7870;52.448;13.270;2023-06-14T11:04:51;5.60;;;3.50;;
15536;SDS011;7870;52.448;13.270;2023-06-14T11:10:14;5.70;;;3.22;;
15536;SDS011;7870;52.448;13.270;2023-06-14T11:12:54;5.22;;;2.70;;
15536;SDS011;7870;52.448;13.270;2023-06-14T11:15:27;9.20;;;3.17;;
15536;SDS011;7870;52.448;13.270;2023-06-14T11:17:54;5.35;;;3.35;;
15536;SDS011;7870;52.448;13.270;2023-06-14T11:20:24;6.97;;;3.17;;
15536;SDS011;7870;52.448;13.270;2023-06-14T11:22:54;6.38;;;3.42;;
15536;SDS011;7870;52.448;13.270;2023-06-14T11:25:20;9.60;;;3.22;;
15536;SDS011;7870;52.448;13.270;2023-06-14T11:27:48;8.15;;;3.60;;
15536;SDS011;7870;52.448;13.270;2023-06-14T11:30:15;10.02;;;3.15;;
15536;SDS011;7870;52.448;13.270;2023-06-14T11:32:42;8.40;;;3.50;;
15536;SDS011;7870;52.448;13.270;2023-06-14T11:35:09;5.03;;;2.90;;
15536;SDS011;7870;52.448;13.270;2023-06-14T11:37:35;7.85;;;3.20;;
15536;SDS011;7870;52.448;13.270;2023-06-14T11:40:07;10.00;;;3.65;;
15536;SDS011;7870;52.448;13.270;2023-06-14T11:43:12;10.95;;;3.40;;
15536;SDS011;7870;52.448;13.270;2023-06-14T11:45:40;7.90;;;3.53;;
15536;SDS011;7870;52.448;13.270;2023-06-14T11:48:07;9.18;;;3.47;;
15536;SDS011;7870;52.448;13.270;2023-06-14T11:50:33;6.68;;;3.63;;
15536;SDS011;7870;52.448;13.270;2023-06-14T11:53:03;6.78;;;2.75;;
15536;SDS011;7870;52.448;13.270;2023-06-14T11:55:37;7.60;;;3.20;;
15536;SDS011;7870;52.448;13.270;2023-06-14T11:58:04;6.70;;;3.53;;
15536;SDS011;7870;52.448;13.270;2023-06-14T12:00:31;12.40;;;4.22;;
15536;SDS011;7870;52.448;13.270;2023-06-14T12:02:59;7.30;;;3.30;;
15536;SDS011;7870;52.448;13.270;2023-06-14T12:05:26;8.45;;;3.75;;
15536;SDS011;7870;52.448;13.270;2023-06-14T12:08:00;9.93;;;3.40;;
15536;SDS011;7870;52.448;13.270;2023-06-14T12:10:29;7.75;;;3.78;;
15536;SDS011;7870;52.448;13.270;2023-06-14T12:12:57;5.70;;;2.83;;
15536;SDS011;7870;52.448;13.270;2023-06-14T12:15:24;13.57;;;3.55;;
15536;SDS011;7870;52.448;13.270;2023-06-14T12:17:55;9.23;;;3.70;;
15536;SDS011;7870;52.448;13.270;2023-06-14T12:20:21;7.10;;;3.40;;
15536;SDS011;7870;52.448;13.270;2023-06-14T12:22:51;8.50;;;3.53;;
15536;SDS011;7870;52.448;13.270;2023-06-14T12:25:27;8.07;;;3.63;;
15536;SDS011;7870;52.448;13.270;2023-06-14T12:28:08;7.43;;;3.47;;
15536;SDS011;7870;52.448;13.270;2023-06-14T12:30:35;8.52;;;3.25;;
15536;SDS011;7870;52.448;13.270;2023-06-14T12:33:03;7.82;;;3.67;;
15536;SDS011;7870;52.448;13.270;2023-06-14T12:35:30;10.23;;;3.88;;
15536;SDS011;7870;52.448;13.270;2023-06-14T12:37:57;6.53;;;3.60;;
15536;SDS011;7870;52.448;13.270;2023-06-14T12:40:23;7.72;;;3.35;;
15536;SDS011;7870;52.448;13.270;2023-06-14T12:42:50;7.38;;;3.13;;
15536;SDS011;7870;52.448;13.270;2023-06-14T12:45:17;7.30;;;3.60;;
15536;SDS011;7870;52.448;13.270;2023-06-14T12:47:44;7.82;;;3.25;;
15536;SDS011;7870;52.448;13.270;2023-06-14T12:50:12;5.65;;;3.10;;
15536;SDS011;7870;52.448;13.270;2023-06-14T12:52:44;5.25;;;3.10;;
15536;SDS011;7870;52.448;13.270;2023-06-14T12:55:11;9.23;;;3.38;;
15536;SDS011;7870;52.448;13.270;2023-06-14T12:57:37;5.70;;;3.10;;
15536;SDS011;7870;52.448;13.270;2023-06-14T13:00:05;8.27;;;3.20;;
15536;SDS011;7870;52.448;13.270;2023-06-14T13:02:34;6.60;;;3.05;;
15536;SDS011;7870;52.448;13.270;2023-06-14T13:05:10;7.80;;;2.97;;
15536;SDS011;7870;52.448;13.270;2023-06-14T13:07:37;6.22;;;3.03;;
15536;SDS011;7870;52.448;13.270;2023-06-14T13:10:04;7.30;;;2.88;;
15536;SDS011;7870;52.448;13.270;2023-06-14T13:12:31;7.90;;;2.65;;
15536;SDS011;7870;52.448;13.270;2023-06-14T13:14:57;11.45;;;2.90;;
15536;SDS011;7870;52.448;13.270;2023-06-14T13:17:24;7.40;;;3.40;;
15536;SDS011;7870;52.448;13.270;2023-06-14T13:19:57;5.32;;;2.70;;
15536;SDS011;7870;52.448;13.270;2023-06-14T13:22:24;5.75;;;2.92;;
15536;SDS011;7870;52.448;13.270;2023-06-14T13:24:51;7.07;;;3.20;;
15536;SDS011;7870;52.448;13.270;2023-06-14T13:27:18;6.00;;;2.67;;
15536;SDS011;7870;52.448;13.270;2023-06-14T13:30:10;5.97;;;3.05;;
15536;SDS011;7870;52.448;13.270;2023-06-14T13:32:37;6.38;;;3.05;;
15536;SDS011;7870;52.448;13.270;2023-06-14T13:35:04;5.88;;;2.72;;
15536;SDS011;7870;52.448;13.270;2023-06-14T13:37:31;6.30;;;3.28;;
15536;SDS011;7870;52.448;13.270;2023-06-14T13:39:57;5.15;;;2.63;;
15536;SDS011;7870;52.448;13.270;2023-06-14T13:42:24;5.82;;;3.03;;
15536;SDS011;7870;52.448;13.270;2023-06-14T13:44:51;6.10;;;2.53;;
15536;SDS011;7870;52.448;13.270;2023-06-14T13:47:19;8.77;;;3.28;;
15536;SDS011;7870;52.448;13.270;2023-06-14T13:49:57;5.72;;;2.50;;
15536;SDS011;7870;52.448;13.270;2023-06-14T13:57:18;4.65;;;2.80;;
15536;SDS011;7870;52.448;13.270;2023-06-14T13:59:48;8.32;;;2.85;;
15536;SDS011;7870;52.448;13.270;2023-06-14T14:07:21;6.25;;;2.63;;
15536;SDS011;7870;52.448;13.270;2023-06-14T14:09:48;7.57;;;2.85;;
15536;SDS011;7870;52.448;13.270;2023-06-14T14:12:14;7.38;;;2.95;;
15536;SDS011;7870;52.448;13.270;2023-06-14T14:14:41;9.63;;;3.20;;
15536;SDS011;7870;52.448;13.270;2023-06-14T14:17:08;7.38;;;3.20;;
15536;SDS011;7870;52.448;13.270;2023-06-14T14:19:35;4.80;;;3.10;;
15536;SDS011;7870;52.448;13.270;2023-06-14T14:26:05;5.28;;;2.90;;
15536;SDS011;7870;52.448;13.270;2023-06-14T14:28:47;6.13;;;2.90;;
15536;SDS011;7870;52.448;13.270;2023-06-14T14:32:56;7.82;;;2.92;;
15536;SDS011;7870;52.448;13.270;2023-06-14T14:37:26;8.15;;;2.90;;
15536;SDS011;7870;52.448;13.270;2023-06-14T14:41:23;15.95;;;3.22;;
15536;SDS011;7870;52.448;13.270;2023-06-14T14:58:05;6.22;;;2.90;;
15536;SDS011;7870;52.448;13.270;2023-06-14T15:06:26;6.03;;;3.60;;
15536;SDS011;7870;52.448;13.270;2023-06-14T15:10:45;5.43;;;3.42;;
15536;SDS011;7870;52.448;13.270;2023-06-14T15:15:02;9.88;;;3.53;;
15536;SDS011;7870;52.448;13.270;2023-06-14T15:17:51;5.97;;;2.97;;
15536;SDS011;7870;52.448;13.270;2023-06-14T15:20:17;5.50;;;3.13;;
15536;SDS011;7870;52.448;13.270;2023-06-14T15:22:44;11.05;;;3.20;;
15536;SDS011;7870;52.448;13.270;2023-06-14T15:25:15;8.18;;;3.03;;
15536;SDS011;7870;52.448;13.270;2023-06-14T15:27:41;4.65;;;2.85;;
15536;SDS011;7870;52.448;13.270;2023-06-14T15:30:08;7.60;;;3.10;;
15536;SDS011;7870;52.448;13.270;2023-06-14T15:32:35;6.35;;;2.88;;
15536;SDS011;7870;52.448;13.270;2023-06-14T15:35:02;5.72;;;3.10;;
15536;SDS011;7870;52.448;13.270;2023-06-14T15:37:28;7.70;;;3.22;;
15536;SDS011;7870;52.448;13.270;2023-06-14T15:39:55;7.47;;;2.67;;
15536;SDS011;7870;52.448;13.270;2023-06-14T15:42:21;8.45;;;2.83;;
15536;SDS011;7870;52.448;13.270;2023-06-14T15:44:48;7.85;;;2.83;;
15536;SDS011;7870;52.448;13.270;2023-06-14T15:47:15;8.50;;;3.22;;
15536;SDS011;7870;52.448;13.270;2023-06-14T15:49:42;9.60;;;3.00;;
15536;SDS011;7870;52.448;13.270;2023-06-14T15:52:08;7.63;;;3.38;;
15536;SDS011;7870;52.448;13.270;2023-06-14T15:54:35;5.13;;;2.78;;
15536;SDS011;7870;52.448;13.270;2023-06-14T15:57:02;5.72;;;2.75;;
15536;SDS011;7870;52.448;13.270;2023-06-14T15:59:28;10.68;;;3.33;;